Monroe, LA (71203)

9:26 AM CDT on October 31, 2014 (GMT -0500)
Lakeshore/Swartz | Change Station
CLOSE
Current Station
Personal Weather Station
Location: Monroe, LA
Elevation: 78 ft
Nearby Weather Stations
Active Advisory: Lake Wind Advisory

Elev 78 ft 32.54 °N, 92.00 °W | Updated 1 second ago

Clear
Clear
58.8 °F
Feels Like 58.8 °F
N
6.0
Wind Variable Wind from NW
Gusts 6.0 mph

Today
High -- | Low -- °F
--% Chance of Precip.
Yesterday
High -- | Low -- °F
Precip. -- in
7:24 AM 6:18 PM
First Quarter, 55% visible
Pressure 30.14 in
Visibility 10.0 miles
Clouds Clear
Dew Point 48 °F
Humidity 68%
Rainfall 0.00 in
Snow Depth Not available.
UV 1 out of 12
Pollen 2.30 out of 12
Air Quality Not available.
Flu Activity Not available.
METAR KMLU 311353Z 35009KT 10SM CLR 14/08 A3014 RMK AO2 SLP204 T01390078

More Conditions Fewer Conditions

Pressure 30.14 in
Visibility 10.0 miles
Clouds Clear
Dew Point 48 °F
Humidity 68%
Rainfall 0.00 in
Snow Depth Not available.
UV 1 out of 12
Pollen 2.30 out of 12
Air Quality Not available.
Flu Activity Not available.
METAR KMLU 311353Z 35009KT 10SM CLR 14/08 A3014 RMK AO2 SLP204 T01390078

More Conditions Fewer Conditions

10-Day Weather Forecast

Almanac

Astronomy

Oct. 31, 2014 Rise Set
Actual Time
Civil Twilight
Nautical Twilight
Astronomical Twilight
Moon
Length of Visible Light
Length of Day
Tomorrow will be .
, % of the Moon is Illuminated

Today's Extremes

State Highs State Lows

Community

WunderPhotos

Upload Photos

1,766,617 photos uploaded!

WunderBlogs® & News

Nearby

Air Quality

  Air Quality AQ Index Pollutant
Not available.

Snow Depth

Station Depth Elevation

Earthquake Activity

City Distance Mag. Time & Date
Minimum magnitude displayed is 2.5.

Coastal Water Temperatures

Place Temperature

Nearby Weather Stations